Time;durP1;ratioP1;P1;durP2;ratioP2;P2;SDS_P1;SDS_P2;PMS_P1;PMS_P2;Temp;Humidity;BMP_temperature;BMP_pressure;BME280_temperature;BME280_humidity;BME280_pressure;Samples;Min_cycle;Max_cycle;Signal;HPM_P1;HPM_P2
2021/12/05 00:24:43;;;;;;;4.43;2.60;;;5.20;97.00;;;;;;5036147;28;20897;-87
2021/12/05 00:27:24;;;;;;;3.07;1.90;;;5.20;97.80;;;;;;5063528;28;20203;-87
2021/12/05 00:30:12;;;;;;;5.70;2.80;;;5.20;97.70;;;;;;5060655;28;20221;-86
2021/12/05 00:32:53;;;;;;;6.07;2.10;;;5.10;97.40;;;;;;5050491;28;20223;-86
2021/12/05 00:36:08;;;;;;;3.50;2.47;;;5.20;95.80;;;;;;5071376;28;20544;-86
2021/12/05 00:44:45;;;;;;;5.60;2.30;;;5.20;97.10;;;;;;5069224;28;20188;-86
2021/12/05 01:02:34;;;;;;;6.13;2.00;;;5.20;97.10;;;;;;5069835;28;20245;-86
2021/12/05 01:15:45;;;;;;;3.03;1.70;;;5.20;97.70;;;;;;5070167;28;20585;-87
2021/12/05 01:18:16;;;;;;;4.10;1.87;;;5.10;98.30;;;;;;5050316;28;20207;-87
2021/12/05 01:20:46;;;;;;;4.53;1.83;;;5.20;97.40;;;;;;5075678;28;20203;-86
2021/12/05 01:26:04;;;;;;;3.93;1.93;;;5.20;97.70;;;;;;5059090;28;20187;-86
2021/12/05 02:01:19;;;;;;;8.73;2.70;;;5.10;99.90;;;;;;5080111;28;20215;-86
2021/12/05 02:09:11;;;;;;;7.10;2.93;;;5.00;99.90;;;;;;5075746;28;20263;-87
2021/12/05 02:41:42;;;;;;;5.23;2.10;;;5.00;99.10;;;;;;5075084;28;20215;-87
2021/12/05 02:43:57;;;;;;;4.20;2.23;;;5.00;99.60;;;;;;5062477;28;20658;-87
2021/12/05 02:46:25;;;;;;;6.37;2.00;;;4.90;99.90;;;;;;5074642;28;20224;-87
2021/12/05 02:48:51;;;;;;;3.87;2.00;;;4.70;99.90;;;;;;5056486;28;20192;-87
2021/12/05 02:51:23;;;;;;;4.77;1.93;;;4.70;99.90;;;;;;5073619;28;20211;-87
2021/12/05 02:54:15;;;;;;;3.90;1.80;;;4.80;99.70;;;;;;5053939;28;20195;-87
2021/12/05 02:56:42;;;;;;;5.40;1.90;;;4.70;99.90;;;;;;5076144;28;20580;-87
2021/12/05 02:59:21;;;;;;;3.57;2.00;;;4.70;99.90;;;;;;5073367;28;20187;-87
2021/12/05 03:01:53;;;;;;;4.17;2.03;;;4.80;99.90;;;;;;5075102;28;20203;-87
2021/12/05 03:04:23;;;;;;;4.67;2.00;;;4.70;99.90;;;;;;5073112;28;20191;-86
2021/12/05 03:06:51;;;;;;;2.83;1.70;;;4.50;99.90;;;;;;5055667;28;20188;-87
2021/12/05 03:09:17;;;;;;;3.80;1.73;;;4.60;99.90;;;;;;5047716;28;20275;-87
2021/12/05 03:11:44;;;;;;;4.57;1.80;;;4.60;99.90;;;;;;5055288;28;20238;-87
2021/12/05 03:14:10;;;;;;;2.63;1.90;;;4.60;99.90;;;;;;5055704;28;20274;-87
2021/12/05 03:16:38;;;;;;;2.40;1.80;;;4.80;99.90;;;;;;5055629;28;20263;-87
2021/12/05 03:19:07;;;;;;;3.73;2.07;;;4.70;99.90;;;;;;5071767;28;20708;-87
2021/12/05 03:21:34;;;;;;;4.10;2.10;;;4.80;99.70;;;;;;5073548;28;20237;-87
2021/12/05 03:24:00;;;;;;;2.53;1.73;;;4.70;99.90;;;;;;5071757;28;20190;-87
2021/12/05 03:26:31;;;;;;;4.17;1.70;;;4.80;98.50;;;;;;5053844;28;20218;-87
2021/12/05 03:28:57;;;;;;;5.40;1.80;;;4.70;99.90;;;;;;5038508;28;20198;-87
2021/12/05 03:31:27;;;;;;;4.23;1.93;;;4.70;99.80;;;;;;5039081;28;20231;-87
2021/12/05 03:33:54;;;;;;;5.83;1.80;;;4.70;99.60;;;;;;5058159;28;20196;-87
2021/12/05 03:36:20;;;;;;;2.73;1.63;;;4.60;99.90;;;;;;5057975;28;20215;-87
2021/12/05 03:38:46;;;;;;;3.07;1.90;;;4.50;99.90;;;;;;5076843;28;20188;-87
2021/12/05 03:41:12;;;;;;;5.20;2.27;;;4.50;99.90;;;;;;5076721;28;20917;-88
2021/12/05 03:43:40;;;;;;;6.20;2.07;;;4.40;99.90;;;;;;5090630;28;20227;-87
2021/12/05 03:46:07;;;;;;;4.03;1.90;;;4.50;99.90;;;;;;5085759;28;20209;-88
2021/12/05 03:48:38;;;;;;;3.30;1.90;;;4.40;99.90;;;;;;5063109;28;20576;-87
2021/12/05 03:51:07;;;;;;;6.17;2.27;;;4.40;99.90;;;;;;5062778;28;20219;-88
2021/12/05 03:53:33;;;;;;;5.80;2.00;;;4.30;99.90;;;;;;5065993;28;20677;-88
2021/12/05 03:56:03;;;;;;;4.77;2.00;;;4.30;99.90;;;;;;5042260;28;20190;-87
2021/12/05 03:58:30;;;;;;;5.53;2.27;;;4.20;99.90;;;;;;5076662;28;20248;-86
2021/12/05 04:00:58;;;;;;;3.00;1.97;;;4.10;99.90;;;;;;5057264;28;20276;-87
2021/12/05 04:03:26;;;;;;;3.23;1.70;;;4.20;99.90;;;;;;5077007;28;20191;-88
2021/12/05 04:05:52;;;;;;;5.90;2.10;;;4.10;99.90;;;;;;5064119;28;20199;-87
2021/12/05 04:08:21;;;;;;;3.03;1.87;;;4.00;99.90;;;;;;5082321;28;20214;-87
2021/12/05 04:10:51;;;;;;;4.13;1.80;;;4.00;99.90;;;;;;5052662;28;20216;-87
2021/12/05 04:13:17;;;;;;;3.17;1.80;;;4.00;99.90;;;;;;5080339;28;20195;-88
2021/12/05 04:15:45;;;;;;;6.80;1.80;;;4.00;99.90;;;;;;5078138;28;20195;-87
2021/12/05 04:18:11;;;;;;;4.23;2.17;;;4.00;99.90;;;;;;5075390;28;20220;-87
2021/12/05 04:20:37;;;;;;;4.83;2.10;;;4.10;99.90;;;;;;5081159;28;20275;-87
2021/12/05 04:23:04;;;;;;;5.03;1.87;;;4.10;99.90;;;;;;5081953;28;20197;-87
2021/12/05 04:25:35;;;;;;;4.63;1.63;;;4.10;99.90;;;;;;5049603;28;20195;-88
2021/12/05 04:28:01;;;;;;;8.13;2.43;;;4.00;99.90;;;;;;5081279;28;20183;-87
2021/12/05 04:30:26;;;;;;;2.83;1.60;;;4.10;99.90;;;;;;5060953;28;20268;-87
2021/12/05 04:32:52;;;;;;;5.23;2.20;;;4.00;99.90;;;;;;5046161;28;20242;-88
2021/12/05 04:35:18;;;;;;;3.00;1.80;;;4.00;99.90;;;;;;5061347;28;20188;-87
2021/12/05 04:37:44;;;;;;;5.67;2.03;;;4.00;99.90;;;;;;5056012;28;20211;-88
2021/12/05 04:40:11;;;;;;;3.23;1.70;;;4.00;99.90;;;;;;5075498;28;20229;-88
2021/12/05 04:42:37;;;;;;;2.83;1.80;;;4.00;99.90;;;;;;5063556;28;20215;-88
2021/12/05 04:45:06;;;;;;;2.33;1.70;;;4.00;99.90;;;;;;5057729;28;20189;-87
2021/12/05 04:47:32;;;;;;;3.30;1.93;;;4.10;99.90;;;;;;5080258;28;20826;-87
2021/12/05 04:49:58;;;;;;;7.47;2.10;;;4.00;99.90;;;;;;5069811;28;20249;-87
2021/12/05 04:52:24;;;;;;;2.97;1.97;;;4.00;99.90;;;;;;5079316;28;20214;-88
2021/12/05 04:54:50;;;;;;;2.97;1.70;;;4.00;99.90;;;;;;5078001;28;20529;-87
2021/12/05 04:57:16;;;;;;;3.43;1.97;;;4.10;99.90;;;;;;5080043;28;20832;-88
2021/12/05 04:59:49;;;;;;;4.23;2.60;;;4.10;99.90;;;;;;5063574;28;20176;-88
2021/12/05 05:02:15;;;;;;;2.30;1.73;;;4.10;99.90;;;;;;5065506;28;20207;-87
2021/12/05 05:04:42;;;;;;;4.83;1.87;;;4.00;99.90;;;;;;5061540;28;21002;-87
2021/12/05 05:07:15;;;;;;;5.17;2.00;;;4.10;99.90;;;;;;5045582;28;20194;-87
2021/12/05 05:09:41;;;;;;;5.40;2.27;;;4.00;99.90;;;;;;5077993;28;20270;-87
2021/12/05 05:12:08;;;;;;;2.90;2.07;;;4.10;99.90;;;;;;5065316;28;20618;-87
2021/12/05 05:14:34;;;;;;;7.73;1.93;;;4.10;99.90;;;;;;5038871;28;20222;-87
2021/12/05 05:17:00;;;;;;;2.50;1.80;;;4.10;99.90;;;;;;5063677;28;20211;-88
2021/12/05 05:19:31;;;;;;;5.13;2.10;;;4.10;99.90;;;;;;5060380;28;20196;-87
2021/12/05 05:22:09;;;;;;;3.00;1.90;;;4.20;99.90;;;;;;5060571;28;20210;-87
2021/12/05 05:43:52;;;;;;;4.30;2.60;;;3.90;99.90;;;;;;5093000;28;20191;-87
2021/12/05 05:49:17;;;;;;;4.60;1.90;;;3.80;99.90;;;;;;5057986;28;20290;-87
2021/12/05 05:51:43;;;;;;;5.00;2.10;;;3.80;99.90;;;;;;5076309;28;20249;-87
2021/12/05 05:54:09;;;;;;;6.30;2.10;;;3.70;99.90;;;;;;5082129;28;20216;-88
2021/12/05 05:56:36;;;;;;;7.47;2.07;;;3.70;99.90;;;;;;5077420;28;20226;-88
2021/12/05 05:59:29;;;;;;;4.23;2.30;;;3.70;99.90;;;;;;5078648;28;20186;-87
2021/12/05 06:04:15;;;;;;;4.67;2.20;;;3.70;99.90;;;;;;5057440;28;20198;-88
2021/12/05 06:06:41;;;;;;;4.03;2.20;;;3.60;99.90;;;;;;5078800;28;20180;-88
2021/12/05 06:09:08;;;;;;;7.77;2.53;;;3.70;99.90;;;;;;5043700;28;20337;-88
2021/12/05 06:11:34;;;;;;;5.53;2.00;;;3.60;99.90;;;;;;5041828;28;20687;-87
2021/12/05 06:14:00;;;;;;;4.53;2.03;;;3.50;99.90;;;;;;5060377;28;20191;-88
2021/12/05 06:16:26;;;;;;;3.93;1.83;;;3.60;99.90;;;;;;5060519;28;20222;-88
2021/12/05 06:18:52;;;;;;;4.83;1.97;;;3.60;99.90;;;;;;5076543;28;20267;-87
2021/12/05 06:21:17;;;;;;;5.23;2.67;;;3.60;99.90;;;;;;5059648;28;20212;-88
2021/12/05 06:23:44;;;;;;;4.90;2.20;;;3.70;99.90;;;;;;5041476;28;20212;-87
2021/12/05 06:26:19;;;;;;;3.63;2.03;;;3.60;99.90;;;;;;5039946;28;20184;-87
2021/12/05 06:28:46;;;;;;;3.43;2.13;;;3.70;99.90;;;;;;5061714;28;20318;-88
2021/12/05 06:39:29;;;;;;;2.70;1.80;;;3.70;99.90;;;;;;5075667;28;20249;-87
2021/12/05 06:47:25;;;;;;;4.07;1.97;;;3.70;99.90;;;;;;5061567;28;20229;-87
2021/12/05 06:49:52;;;;;;;3.60;2.20;;;3.80;99.90;;;;;;5057033;28;20253;-87
2021/12/05 06:52:18;;;;;;;7.10;2.07;;;3.80;99.90;;;;;;5062472;28;20262;-87
2021/12/05 06:54:45;;;;;;;5.93;2.17;;;3.80;99.90;;;;;;5041579;28;20192;-87
2021/12/05 06:57:11;;;;;;;8.30;2.37;;;3.80;99.90;;;;;;5056461;28;20278;-87
2021/12/05 06:59:39;;;;;;;5.40;2.30;;;3.90;99.90;;;;;;5062479;28;20211;-87
2021/12/05 07:02:07;;;;;;;4.40;2.23;;;3.90;99.90;;;;;;5059366;28;20203;-86
2021/12/05 07:07:22;;;;;;;6.77;2.23;;;3.80;99.90;;;;;;5077348;28;20202;-90
2021/12/05 07:10:00;;;;;;;2.93;2.30;;;3.80;99.90;;;;;;5057821;28;20286;-91
2021/12/05 07:21:55;;;;;;;4.80;1.80;;;4.10;99.90;;;;;;5074982;28;20280;-89
2021/12/05 07:25:34;;;;;;;4.00;2.20;;;4.00;99.90;;;;;;5050756;28;20196;-88
2021/12/05 07:43:34;;;;;;;4.37;2.10;;;4.20;99.90;;;;;;5073191;28;20735;-89
2021/12/05 07:50:39;;;;;;;;;;;;;;;;;;;;;
2021/12/05 07:57:06;;;;;;;4.67;2.50;;;4.20;99.90;;;;;;4937603;29;20337;-89
2021/12/05 08:15:44;;;;;;;;;;;;;;;;;;;;;
2021/12/05 08:22:14;;;;;;;5.17;2.57;;;4.40;99.90;;;;;;4976550;28;20292;-89
2021/12/05 08:25:10;;;;;;;5.93;2.00;;;4.40;99.70;;;;;;5050089;28;20325;-89
2021/12/05 08:27:40;;;;;;;3.80;2.23;;;4.50;98.80;;;;;;5059409;28;20254;-89
2021/12/05 08:30:11;;;;;;;3.03;2.30;;;4.50;97.50;;;;;;5045505;28;20203;-90
2021/12/05 08:32:56;;;;;;;4.77;2.70;;;4.50;99.00;;;;;;5045409;28;20214;-90
2021/12/05 09:30:37;;;;;;;2.50;1.73;;;4.20;99.90;;;;;;5076695;28;20246;-89
2021/12/05 09:51:13;;;;;;;2.77;1.60;;;4.60;99.90;;;;;;5083372;28;20218;-88
2021/12/05 10:38:11;;;;;;;2.70;2.10;;;5.30;99.90;;;;;;5032262;28;20204;-91
2021/12/05 10:41:01;;;;;;;2.43;2.23;;;5.30;99.90;;;;;;5054074;28;20211;-91
2021/12/05 10:43:32;;;;;;;4.33;2.60;;;5.40;99.90;;;;;;5076209;28;20180;-90
2021/12/05 10:46:23;;;;;;;3.73;2.53;;;5.40;99.90;;;;;;5072422;28;20250;-91
2021/12/05 10:49:07;;;;;;;6.23;2.60;;;5.40;99.90;;;;;;5076653;28;20206;-90
2021/12/05 10:51:44;;;;;;;4.50;2.57;;;5.30;99.90;;;;;;5077387;28;20203;-91
2021/12/05 11:11:48;;;;;;;3.10;1.70;;;5.10;99.90;;;;;;2916923;26;20270;-88
2021/12/05 11:14:53;;;;;;;2.20;1.80;;;4.80;99.90;;;;;;5077881;28;20204;-88
2021/12/05 11:17:30;;;;;;;1.87;1.47;;;4.80;99.90;;;;;;5046908;28;20219;-88
2021/12/05 11:20:28;;;;;;;3.83;2.07;;;4.80;99.90;;;;;;5061052;28;20192;-89
2021/12/05 11:23:04;;;;;;;2.77;1.77;;;4.80;99.90;;;;;;5027995;28;20657;-89
2021/12/05 11:25:35;;;;;;;3.20;1.80;;;4.70;99.90;;;;;;5059143;28;20537;-88
2021/12/05 11:28:08;;;;;;;2.73;1.70;;;4.90;99.90;;;;;;5059064;28;20193;-89
2021/12/05 11:34:05;;;;;;;3.43;2.10;;;5.10;99.90;;;;;;5058987;28;20226;-89
2021/12/05 11:40:35;;;;;;;4.00;2.50;;;5.00;99.90;;;;;;5063958;28;20694;-89
2021/12/05 11:43:44;;;;;;;2.30;2.00;;;5.10;99.90;;;;;;5038964;28;20202;-89
2021/12/05 11:49:54;;;;;;;2.97;1.90;;;5.10;99.90;;;;;;5007202;28;20262;-89
2021/12/05 11:52:24;;;;;;;1.70;1.30;;;5.10;99.90;;;;;;5057678;28;20695;-88
2021/12/05 11:54:51;;;;;;;1.73;1.60;;;5.10;99.90;;;;;;5057769;28;20421;-89
2021/12/05 11:57:24;;;;;;;2.40;2.00;;;4.90;99.90;;;;;;5059336;28;20241;-89
2021/12/05 11:59:52;;;;;;;2.10;1.90;;;5.00;99.90;;;;;;5061042;28;20184;-88
2021/12/05 12:02:27;;;;;;;2.27;1.90;;;5.00;99.90;;;;;;5061462;28;20208;-88
2021/12/05 12:05:20;;;;;;;2.03;1.83;;;5.00;99.90;;;;;;5059274;28;20214;-89
2021/12/05 12:07:49;;;;;;;4.13;2.23;;;5.10;99.90;;;;;;5058867;28;20246;-90
2021/12/05 12:10:25;;;;;;;4.87;2.00;;;5.10;99.90;;;;;;5043436;28;20220;-88
2021/12/05 12:13:00;;;;;;;1.90;1.80;;;5.20;99.90;;;;;;5070531;28;20192;-89
2021/12/05 12:15:27;;;;;;;2.97;2.23;;;5.10;99.90;;;;;;5074449;28;20244;-89
2021/12/05 12:18:06;;;;;;;3.17;1.90;;;5.10;99.90;;;;;;5068902;28;20268;-90
2021/12/05 12:20:34;;;;;;;2.50;1.80;;;5.20;99.90;;;;;;5050285;28;20242;-91
2021/12/05 12:23:00;;;;;;;3.57;2.13;;;5.30;99.90;;;;;;5051765;28;20199;-90
2021/12/05 12:25:29;;;;;;;3.17;1.90;;;5.30;99.90;;;;;;5051077;28;20189;-88
2021/12/05 12:28:02;;;;;;;3.70;2.37;;;5.50;99.90;;;;;;5065541;28;20180;-89
2021/12/05 12:30:31;;;;;;;4.70;2.87;;;5.50;99.90;;;;;;5068786;28;20215;-89
2021/12/05 12:33:10;;;;;;;4.73;2.67;;;5.40;99.90;;;;;;5071137;28;20177;-88
2021/12/05 12:35:37;;;;;;;6.20;2.73;;;5.60;99.90;;;;;;5054887;28;20207;-90
2021/12/05 12:38:08;;;;;;;3.63;2.93;;;5.60;99.90;;;;;;5054515;28;20296;-89
2021/12/05 12:40:55;;;;;;;2.63;2.23;;;5.60;99.90;;;;;;5059532;28;20219;-88
2021/12/05 12:43:39;;;;;;;5.20;2.70;;;5.80;99.90;;;;;;5062740;28;20237;-90
2021/12/05 12:46:36;;;;;;;3.53;2.17;;;5.80;99.80;;;;;;5042949;28;20192;-90
2021/12/05 12:49:14;;;;;;;2.97;2.40;;;5.90;99.90;;;;;;5062023;28;20212;-90
2021/12/05 12:51:59;;;;;;;3.80;2.47;;;6.20;99.00;;;;;;5052170;28;20272;-90
2021/12/05 12:54:40;;;;;;;3.20;2.40;;;6.20;99.90;;;;;;5053218;28;20282;-90
2021/12/05 12:57:06;;;;;;;4.20;2.27;;;6.30;97.80;;;;;;5064335;28;20290;-90
2021/12/05 12:59:35;;;;;;;3.23;2.00;;;6.30;97.90;;;;;;5058487;28;20188;-90
2021/12/05 13:10:33;;;;;;;7.13;2.47;;;5.90;99.50;;;;;;5046196;28;20587;-90
2021/12/05 13:13:26;;;;;;;4.77;2.57;;;5.90;99.50;;;;;;5045012;28;20204;-89
2021/12/05 13:15:59;;;;;;;3.27;2.43;;;5.80;99.90;;;;;;5062118;28;20660;-89
2021/12/05 13:18:31;;;;;;;4.10;2.20;;;5.70;99.90;;;;;;5060936;28;20219;-90
2021/12/05 13:21:05;;;;;;;2.23;2.00;;;5.60;99.90;;;;;;5057734;28;20247;-90
2021/12/05 13:23:41;;;;;;;2.70;1.80;;;5.50;99.90;;;;;;5043484;28;20878;-89
2021/12/05 13:26:26;;;;;;;1.70;1.50;;;5.50;98.50;;;;;;5068379;28;20192;-90
2021/12/05 13:28:58;;;;;;;1.63;1.53;;;5.50;99.20;;;;;;5049830;28;20279;-90
2021/12/05 13:31:31;;;;;;;4.27;2.20;;;5.50;97.90;;;;;;5064921;28;20231;-89
2021/12/05 13:34:21;;;;;;;2.00;1.80;;;5.50;99.00;;;;;;5060255;28;20735;-88
2021/12/05 13:36:49;;;;;;;3.27;1.90;;;5.60;98.80;;;;;;5062036;28;20204;-89
2021/12/05 13:39:43;;;;;;;3.70;1.57;;;5.70;96.20;;;;;;5060473;28;20176;-89
2021/12/05 13:42:46;;;;;;;3.30;1.93;;;5.70;95.70;;;;;;5061867;28;20200;-90
2021/12/05 13:45:25;;;;;;;2.20;1.50;;;6.00;93.90;;;;;;5055501;28;20589;-89
2021/12/05 13:47:58;;;;;;;3.30;1.50;;;6.20;93.00;;;;;;5062055;28;20191;-91
2021/12/05 13:50:30;;;;;;;3.83;1.47;;;6.20;94.30;;;;;;5047296;28;20227;-90
2021/12/05 13:53:02;;;;;;;3.83;1.60;;;6.40;92.80;;;;;;5046939;28;20263;-90
2021/12/05 13:56:01;;;;;;;2.00;1.73;;;6.30;91.70;;;;;;5049051;28;20272;-90
2021/12/05 13:58:40;;;;;;;4.63;2.03;;;6.20;91.80;;;;;;5007753;28;20261;-88
2021/12/05 14:01:43;;;;;;;1.53;1.43;;;6.20;93.40;;;;;;5061312;28;20219;-90
2021/12/05 14:04:24;;;;;;;1.73;1.47;;;6.50;90.60;;;;;;5042465;28;20192;-89
2021/12/05 14:07:04;;;;;;;3.27;1.67;;;6.40;91.20;;;;;;5050488;28;20190;-90
2021/12/05 14:09:47;;;;;;;3.00;2.00;;;6.10;92.20;;;;;;5060638;28;20823;-90
2021/12/05 14:12:24;;;;;;;2.93;1.57;;;6.10;94.20;;;;;;5055964;28;20223;-88
2021/12/05 14:14:54;;;;;;;3.20;1.70;;;6.10;93.40;;;;;;5047978;28;20222;-89
2021/12/05 14:17:27;;;;;;;2.83;2.10;;;6.10;94.10;;;;;;5060108;28;20239;-88
2021/12/05 14:19:59;;;;;;;2.33;2.00;;;6.00;95.10;;;;;;5057149;28;20234;-89
2021/12/05 14:22:31;;;;;;;3.33;2.40;;;6.30;94.90;;;;;;5056880;28;20220;-90
2021/12/05 14:24:59;;;;;;;3.23;1.83;;;6.10;95.70;;;;;;5037728;28;20206;-90
2021/12/05 14:27:28;;;;;;;4.13;2.40;;;6.20;95.80;;;;;;5068275;28;20212;-90
2021/12/05 14:29:56;;;;;;;3.40;2.27;;;6.20;95.00;;;;;;5047511;28;20219;-90
2021/12/05 14:32:34;;;;;;;3.70;2.30;;;6.10;95.40;;;;;;5055859;28;20240;-89
2021/12/05 14:35:01;;;;;;;4.03;2.67;;;6.10;96.20;;;;;;5063065;28;20202;-90
2021/12/05 14:37:33;;;;;;;3.13;2.57;;;6.10;97.00;;;;;;5051684;28;20253;-90
2021/12/05 14:40:05;;;;;;;6.70;3.53;;;6.10;95.90;;;;;;5049131;28;20177;-90
2021/12/05 14:42:33;;;;;;;4.63;3.00;;;6.10;95.60;;;;;;5043477;28;20192;-91
2021/12/05 14:45:03;;;;;;;4.37;2.53;;;6.10;96.00;;;;;;5056554;28;20188;-90
2021/12/05 14:47:33;;;;;;;4.53;3.03;;;6.00;96.00;;;;;;5047088;28;20592;-91
2021/12/05 14:50:05;;;;;;;5.47;3.73;;;5.90;96.90;;;;;;5050599;28;20191;-91
2021/12/05 14:52:34;;;;;;;7.17;5.40;;;5.90;96.90;;;;;;5061359;28;20196;-91
2021/12/05 14:55:01;;;;;;;8.30;5.83;;;5.90;97.70;;;;;;5054372;28;20183;-91
2021/12/05 14:57:31;;;;;;;7.63;6.10;;;5.90;98.00;;;;;;5064818;28;20290;-92
2021/12/05 15:00:18;;;;;;;7.17;4.87;;;5.80;98.70;;;;;;5051746;28;20180;-92
2021/12/05 15:02:45;;;;;;;5.53;4.43;;;5.90;98.60;;;;;;5067017;28;20183;-91
2021/12/05 15:05:14;;;;;;;7.00;5.10;;;5.90;98.90;;;;;;5048947;28;20184;-92
2021/12/05 15:07:41;;;;;;;4.87;4.17;;;5.90;98.80;;;;;;5052260;28;20204;-92
2021/12/05 15:10:08;;;;;;;4.83;3.97;;;5.90;99.10;;;;;;5022369;28;20188;-91
2021/12/05 15:12:35;;;;;;;6.17;3.97;;;5.90;99.00;;;;;;5071406;28;20202;-91
2021/12/05 15:15:09;;;;;;;6.47;5.00;;;5.80;99.00;;;;;;5062748;28;20200;-91
2021/12/05 15:17:41;;;;;;;5.87;4.60;;;5.80;98.80;;;;;;5073182;28;20715;-92
2021/12/05 15:20:19;;;;;;;4.77;4.17;;;5.90;98.70;;;;;;5071932;28;20182;-91
2021/12/05 15:22:53;;;;;;;6.27;5.63;;;5.90;98.60;;;;;;5080790;28;20195;-91
2021/12/05 15:25:24;;;;;;;11.20;9.77;;;5.80;98.90;;;;;;5069955;28;20301;-91
2021/12/05 15:27:50;;;;;;;12.33;10.47;;;5.80;98.80;;;;;;5050462;28;20715;-92
2021/12/05 15:30:22;;;;;;;13.60;12.30;;;5.60;99.20;;;;;;5069526;28;20190;-89
2021/12/05 15:33:33;;;;;;;10.47;9.47;;;5.60;99.20;;;;;;5055495;28;20261;-92
2021/12/05 15:36:36;;;;;;;;;;;;;;;;;;;;;
2021/12/05 15:39:43;;;;;;;8.60;7.70;;;5.70;99.10;;;;;;5073208;28;20294;-91
2021/12/05 15:42:47;;;;;;;6.90;6.20;;;5.80;98.80;;;;;;5055494;28;20219;-91
2021/12/05 15:45:36;;;;;;;;;;;;;;;;;;;;;
2021/12/05 15:48:39;;;;;;;6.07;5.47;;;5.80;98.90;;;;;;5071814;28;20251;-91
2021/12/05 15:53:58;;;;;;;5.53;5.03;;;5.80;98.50;;;;;;5073295;28;20228;-90
2021/12/05 15:56:24;;;;;;;8.07;6.30;;;5.80;98.20;;;;;;5056860;28;20176;-90
2021/12/05 15:59:00;;;;;;;4.03;2.87;;;5.70;97.40;;;;;;5039717;28;20226;-90
2021/12/05 16:01:28;;;;;;;2.77;2.57;;;5.60;97.50;;;;;;5044857;28;20721;-91
2021/12/05 16:03:59;;;;;;;2.63;2.20;;;5.50;98.10;;;;;;5059460;28;20184;-90
2021/12/05 16:06:35;;;;;;;4.87;2.90;;;5.40;98.70;;;;;;5062515;28;20197;-90
2021/12/05 16:09:17;;;;;;;4.53;3.93;;;5.30;99.30;;;;;;5043696;28;20204;-90
2021/12/05 16:11:43;;;;;;;7.70;2.90;;;5.30;99.90;;;;;;5049314;28;20250;-90
2021/12/05 16:14:09;;;;;;;3.77;2.90;;;5.30;99.90;;;;;;5045220;28;20211;-90
2021/12/05 16:16:35;;;;;;;3.10;2.20;;;5.30;99.90;;;;;;5063430;28;20637;-90
2021/12/05 16:19:07;;;;;;;3.47;2.53;;;5.40;99.60;;;;;;5052355;28;20183;-90
2021/12/05 16:21:36;;;;;;;5.47;4.97;;;5.30;99.80;;;;;;5064951;28;20195;-91
2021/12/05 16:24:13;;;;;;;5.17;2.90;;;5.30;99.90;;;;;;5068612;28;20205;-90
2021/12/05 16:26:41;;;;;;;3.47;2.80;;;5.10;99.90;;;;;;5045534;28;20185;-89
2021/12/05 16:29:10;;;;;;;3.33;3.03;;;5.00;99.90;;;;;;5041676;28;20179;-90
2021/12/05 16:31:41;;;;;;;6.03;3.00;;;5.10;99.90;;;;;;5048257;28;20189;-90
2021/12/05 16:34:10;;;;;;;3.23;2.73;;;5.20;99.90;;;;;;5043587;28;20346;-90
2021/12/05 16:36:53;;;;;;;6.20;3.70;;;5.20;99.90;;;;;;5046735;28;20203;-89
2021/12/05 16:39:33;;;;;;;3.47;3.13;;;5.30;99.90;;;;;;5067584;28;20176;-90
2021/12/05 16:42:03;;;;;;;3.53;2.90;;;5.20;99.90;;;;;;5062082;28;20204;-90
2021/12/05 16:44:34;;;;;;;6.83;5.20;;;5.30;99.90;;;;;;5047849;28;20279;-90
2021/12/05 16:47:10;;;;;;;8.27;5.80;;;5.20;99.90;;;;;;5033538;28;20212;-90
2021/12/05 16:49:39;;;;;;;5.83;3.93;;;5.30;99.90;;;;;;5044194;28;20199;-90
2021/12/05 16:52:14;;;;;;;3.63;3.33;;;5.30;99.90;;;;;;5051324;28;20211;-90
2021/12/05 16:54:46;;;;;;;3.73;2.10;;;5.40;99.20;;;;;;5048380;28;20226;-92
2021/12/05 16:57:34;;;;;;;4.17;1.80;;;5.20;98.60;;;;;;5052885;28;20230;-92
2021/12/05 17:00:08;;;;;;;5.70;2.63;;;4.90;99.90;;;;;;5042009;28;20226;-90
2021/12/05 17:02:50;;;;;;;3.23;2.40;;;4.80;99.90;;;;;;5047694;28;20185;-91
2021/12/05 17:05:43;;;;;;;5.50;4.17;;;4.70;99.90;;;;;;5066073;28;20216;-90
2021/12/05 17:08:13;;;;;;;7.00;5.60;;;4.80;99.90;;;;;;5066715;28;20204;-91
2021/12/05 17:11:01;;;;;;;7.40;6.70;;;4.80;99.90;;;;;;5056576;28;20211;-90
2021/12/05 17:13:52;;;;;;;4.43;3.30;;;4.90;99.90;;;;;;5062401;28;20661;-90
2021/12/05 17:16:23;;;;;;;3.70;3.20;;;4.70;99.90;;;;;;5031762;28;20196;-90
2021/12/05 17:19:08;;;;;;;5.43;4.93;;;4.70;99.90;;;;;;5049408;28;20232;-91
2021/12/05 17:21:47;;;;;;;11.10;8.87;;;4.80;99.90;;;;;;5032590;28;20200;-90
2021/12/05 17:24:20;;;;;;;9.07;7.73;;;4.80;99.90;;;;;;5030827;28;20310;-91
2021/12/05 17:26:50;;;;;;;8.83;7.60;;;4.80;99.90;;;;;;5051569;28;20205;-90
2021/12/05 17:29:19;;;;;;;7.87;6.97;;;4.80;99.90;;;;;;5054653;28;20204;-90
2021/12/05 17:32:04;;;;;;;7.33;6.60;;;4.90;99.90;;;;;;5062595;28;20176;-90
2021/12/05 17:34:35;;;;;;;8.97;7.53;;;5.00;99.90;;;;;;5060464;28;20212;-90
2021/12/05 17:37:07;;;;;;;10.97;8.77;;;5.10;99.90;;;;;;5054776;28;20223;-90
2021/12/05 17:39:42;;;;;;;7.87;7.10;;;5.20;99.90;;;;;;5064967;28;20214;-91
2021/12/05 17:42:17;;;;;;;7.40;6.60;;;5.30;99.90;;;;;;5043975;28;20196;-91
2021/12/05 17:44:45;;;;;;;8.77;7.13;;;5.30;99.90;;;;;;5057012;28;20200;-91
2021/12/05 17:47:13;;;;;;;11.40;8.70;;;5.20;99.90;;;;;;5053245;28;20200;-90
2021/12/05 17:49:42;;;;;;;7.13;6.17;;;5.20;99.90;;;;;;5054052;28;20271;-90
2021/12/05 17:52:12;;;;;;;5.90;5.30;;;5.10;99.90;;;;;;5051080;28;20207;-90
2021/12/05 17:54:54;;;;;;;5.93;4.97;;;5.10;99.90;;;;;;5053375;28;20213;-91
2021/12/05 17:57:36;;;;;;;5.60;5.10;;;5.10;99.90;;;;;;5043023;28;20208;-91
2021/12/05 18:00:20;;;;;;;6.47;5.20;;;5.00;99.90;;;;;;5033071;28;20185;-92
2021/12/05 18:02:53;;;;;;;5.30;4.80;;;5.00;99.90;;;;;;5057117;28;20191;-90
2021/12/05 18:05:24;;;;;;;6.10;4.90;;;4.80;99.90;;;;;;5050223;28;20202;-90
2021/12/05 18:07:53;;;;;;;6.13;5.13;;;4.70;99.90;;;;;;5040830;28;20195;-91
2021/12/05 18:10:22;;;;;;;4.87;3.97;;;4.70;99.90;;;;;;5066715;28;20215;-91
2021/12/05 18:12:49;;;;;;;4.67;3.70;;;4.70;99.90;;;;;;5066468;28;20644;-90
2021/12/05 18:15:22;;;;;;;4.73;3.47;;;4.70;99.90;;;;;;5058596;28;20275;-90
2021/12/05 18:17:48;;;;;;;3.73;3.23;;;4.80;99.90;;;;;;5037980;28;20312;-90
2021/12/05 18:20:19;;;;;;;4.53;3.00;;;4.90;99.90;;;;;;5046531;28;20192;-90
2021/12/05 18:22:45;;;;;;;2.93;2.73;;;4.90;99.90;;;;;;5064681;28;20185;-90
2021/12/05 18:25:12;;;;;;;3.50;2.40;;;4.90;99.90;;;;;;5049200;28;20364;-90
2021/12/05 18:27:40;;;;;;;3.00;2.27;;;4.80;99.90;;;;;;5067482;28;20345;-90
2021/12/05 18:30:10;;;;;;;2.37;2.17;;;4.70;99.90;;;;;;5067499;28;20236;-89
2021/12/05 18:32:35;;;;;;;3.10;2.00;;;4.70;99.90;;;;;;5050826;28;20176;-89
2021/12/05 18:35:03;;;;;;;2.73;2.50;;;4.80;98.70;;;;;;5070553;28;20219;-90
2021/12/05 18:37:28;;;;;;;3.50;2.00;;;4.80;98.80;;;;;;5046331;28;20231;-90
2021/12/05 18:39:54;;;;;;;2.20;1.80;;;4.70;98.90;;;;;;5036073;28;20201;-90
2021/12/05 18:42:22;;;;;;;3.30;3.00;;;4.70;99.40;;;;;;5062349;28;20250;-90
2021/12/05 18:44:54;;;;;;;3.40;3.10;;;4.80;99.60;;;;;;5041896;28;20342;-90
2021/12/05 18:47:22;;;;;;;3.47;2.23;;;4.70;99.90;;;;;;5041748;28;20272;-90
2021/12/05 18:49:48;;;;;;;4.00;3.70;;;4.60;99.10;;;;;;5046384;28;20251;-90
2021/12/05 18:52:14;;;;;;;3.17;2.87;;;4.60;99.90;;;;;;5045855;28;20507;-91
2021/12/05 18:54:45;;;;;;;6.50;5.90;;;4.70;99.90;;;;;;5044844;28;20227;-90
2021/12/05 18:57:15;;;;;;;6.57;5.63;;;4.80;99.90;;;;;;5041225;28;20216;-91
2021/12/05 18:59:49;;;;;;;3.00;2.20;;;4.80;99.60;;;;;;5060644;28;20185;-90
2021/12/05 19:05:06;;;;;;;2.23;1.90;;;4.90;98.70;;;;;;5061517;28;20238;-90
2021/12/05 19:07:45;;;;;;;2.10;1.90;;;4.90;97.80;;;;;;5032030;28;20188;-91
2021/12/05 19:12:55;;;;;;;7.30;6.70;;;4.80;99.40;;;;;;5058991;28;20202;-91
2021/12/05 19:15:22;;;;;;;7.40;6.70;;;4.80;98.50;;;;;;5040831;28;20235;-91
2021/12/05 19:17:48;;;;;;;6.00;4.80;;;4.90;97.80;;;;;;5021884;28;20690;-91
2021/12/05 19:20:22;;;;;;;51.10;34.83;;;4.90;98.50;;;;;;5064669;28;20196;-91
2021/12/05 19:22:48;;;;;;;5.10;4.70;;;5.00;98.10;;;;;;5039558;28;20184;-90
2021/12/05 19:25:19;;;;;;;10.37;9.57;;;5.00;98.40;;;;;;5031142;28;20308;-90
2021/12/05 19:27:47;;;;;;;2.53;2.33;;;4.90;98.60;;;;;;5029499;28;20219;-90
2021/12/05 19:30:36;;;;;;;3.60;2.23;;;4.90;99.50;;;;;;5025948;28;20247;-90
2021/12/05 19:33:05;;;;;;;1.60;1.50;;;4.80;99.90;;;;;;5047181;28;20243;-90
2021/12/05 19:35:32;;;;;;;3.23;2.80;;;4.80;99.80;;;;;;5027592;28;20662;-90
2021/12/05 19:37:59;;;;;;;3.60;3.30;;;4.80;99.50;;;;;;5049748;28;20208;-91
2021/12/05 19:40:26;;;;;;;2.80;2.43;;;4.80;98.50;;;;;;5049474;28;20206;-90
2021/12/05 19:42:54;;;;;;;5.53;5.13;;;4.70;99.40;;;;;;5030784;28;20197;-90
2021/12/05 19:45:20;;;;;;;2.50;2.30;;;4.80;98.90;;;;;;5048841;28;20217;-90
2021/12/05 19:47:48;;;;;;;1.93;1.83;;;4.70;98.40;;;;;;5030862;28;20325;-90
2021/12/05 19:50:16;;;;;;;2.50;2.30;;;4.70;98.20;;;;;;5033927;28;20195;-90
2021/12/05 19:52:42;;;;;;;2.70;2.20;;;4.60;99.30;;;;;;5053012;28;20234;-90
2021/12/05 19:55:09;;;;;;;1.77;1.67;;;4.60;99.70;;;;;;5039005;28;20211;-90